sensor_id;sensor_type;location;lat;lon;timestamp;P1;durP1;ratioP1;P2;durP2;ratioP2
16113;SDS011;8161;-33.910;151.156;2023-01-24T00:01:09;7.07;;;1.00;;
16113;SDS011;8161;-33.910;151.156;2023-01-24T00:03:36;6.30;;;0.93;;
16113;SDS011;8161;-33.910;151.156;2023-01-24T00:06:03;3.20;;;0.90;;
16113;SDS011;8161;-33.910;151.156;2023-01-24T00:08:31;5.00;;;1.10;;
16113;SDS011;8161;-33.910;151.156;2023-01-24T00:11:02;2.47;;;1.10;;
16113;SDS011;8161;-33.910;151.156;2023-01-24T00:13:32;6.82;;;1.33;;
16113;SDS011;8161;-33.910;151.156;2023-01-24T00:16:04;7.25;;;1.50;;
16113;SDS011;8161;-33.910;151.156;2023-01-24T00:18:49;6.30;;;1.95;;
16113;SDS011;8161;-33.910;151.156;2023-01-24T00:21:21;4.05;;;1.30;;
16113;SDS011;8161;-33.910;151.156;2023-01-24T00:23:50;7.05;;;1.00;;
16113;SDS011;8161;-33.910;151.156;2023-01-24T00:26:20;8.48;;;1.23;;
16113;SDS011;8161;-33.910;151.156;2023-01-24T00:28:48;4.60;;;1.27;;
16113;SDS011;8161;-33.910;151.156;2023-01-24T00:31:16;2.88;;;0.90;;
16113;SDS011;8161;-33.910;151.156;2023-01-24T00:33:43;2.67;;;1.00;;
16113;SDS011;8161;-33.910;151.156;2023-01-24T00:36:11;6.15;;;1.20;;
16113;SDS011;8161;-33.910;151.156;2023-01-24T00:38:38;6.68;;;1.20;;
16113;SDS011;8161;-33.910;151.156;2023-01-24T00:41:06;6.65;;;1.27;;
16113;SDS011;8161;-33.910;151.156;2023-01-24T00:43:33;4.68;;;1.20;;
16113;SDS011;8161;-33.910;151.156;2023-01-24T00:46:00;6.80;;;1.40;;
16113;SDS011;8161;-33.910;151.156;2023-01-24T00:48:30;6.57;;;1.00;;
16113;SDS011;8161;-33.910;151.156;2023-01-24T00:50:58;8.75;;;1.20;;
16113;SDS011;8161;-33.910;151.156;2023-01-24T00:53:25;6.10;;;1.55;;
16113;SDS011;8161;-33.910;151.156;2023-01-24T00:55:53;7.80;;;1.25;;
16113;SDS011;8161;-33.910;151.156;2023-01-24T00:58:20;5.45;;;1.10;;
16113;SDS011;8161;-33.910;151.156;2023-01-24T01:00:48;8.13;;;0.95;;
16113;SDS011;8161;-33.910;151.156;2023-01-24T01:03:17;4.20;;;1.17;;
16113;SDS011;8161;-33.910;151.156;2023-01-24T01:05:45;7.25;;;1.25;;
16113;SDS011;8161;-33.910;151.156;2023-01-24T01:08:16;7.30;;;1.02;;
16113;SDS011;8161;-33.910;151.156;2023-01-24T01:10:43;6.40;;;1.35;;
16113;SDS011;8161;-33.910;151.156;2023-01-24T01:13:11;4.30;;;1.02;;
16113;SDS011;8161;-33.910;151.156;2023-01-24T01:15:39;7.70;;;1.15;;
16113;SDS011;8161;-33.910;151.156;2023-01-24T01:18:06;6.32;;;1.30;;
16113;SDS011;8161;-33.910;151.156;2023-01-24T01:20:33;4.72;;;0.85;;
16113;SDS011;8161;-33.910;151.156;2023-01-24T01:23:01;5.72;;;1.30;;
16113;SDS011;8161;-33.910;151.156;2023-01-24T01:25:29;4.95;;;1.08;;
16113;SDS011;8161;-33.910;151.156;2023-01-24T01:27:57;2.90;;;1.00;;
16113;SDS011;8161;-33.910;151.156;2023-01-24T01:30:24;2.15;;;0.90;;
16113;SDS011;8161;-33.910;151.156;2023-01-24T01:32:51;5.55;;;1.00;;
16113;SDS011;8161;-33.910;151.156;2023-01-24T01:35:18;6.72;;;1.17;;
16113;SDS011;8161;-33.910;151.156;2023-01-24T01:37:46;3.97;;;1.10;;
16113;SDS011;8161;-33.910;151.156;2023-01-24T01:40:15;3.25;;;1.02;;
16113;SDS011;8161;-33.910;151.156;2023-01-24T01:42:48;4.65;;;1.40;;
16113;SDS011;8161;-33.910;151.156;2023-01-24T01:45:41;6.88;;;1.05;;
16113;SDS011;8161;-33.910;151.156;2023-01-24T01:50:53;4.43;;;0.98;;
16113;SDS011;8161;-33.910;151.156;2023-01-24T01:53:37;5.60;;;1.40;;
16113;SDS011;8161;-33.910;151.156;2023-01-24T01:56:12;4.32;;;1.08;;
16113;SDS011;8161;-33.910;151.156;2023-01-24T01:59:09;5.45;;;1.08;;
16113;SDS011;8161;-33.910;151.156;2023-01-24T02:01:43;10.45;;;1.40;;
16113;SDS011;8161;-33.910;151.156;2023-01-24T02:04:23;2.60;;;0.98;;
16113;SDS011;8161;-33.910;151.156;2023-01-24T02:06:58;6.10;;;1.25;;
16113;SDS011;8161;-33.910;151.156;2023-01-24T02:09:42;4.63;;;1.08;;
16113;SDS011;8161;-33.910;151.156;2023-01-24T02:12:19;6.63;;;1.10;;
16113;SDS011;8161;-33.910;151.156;2023-01-24T02:14:53;6.72;;;1.42;;
16113;SDS011;8161;-33.910;151.156;2023-01-24T02:17:38;6.13;;;1.50;;
16113;SDS011;8161;-33.910;151.156;2023-01-24T02:22:58;5.10;;;1.20;;
16113;SDS011;8161;-33.910;151.156;2023-01-24T02:25:51;4.63;;;1.10;;
16113;SDS011;8161;-33.910;151.156;2023-01-24T02:28:33;6.20;;;1.23;;
16113;SDS011;8161;-33.910;151.156;2023-01-24T02:31:03;4.90;;;1.30;;
16113;SDS011;8161;-33.910;151.156;2023-01-24T02:33:31;3.25;;;1.50;;
16113;SDS011;8161;-33.910;151.156;2023-01-24T02:39:00;6.85;;;1.60;;
16113;SDS011;8161;-33.910;151.156;2023-01-24T02:44:37;4.93;;;1.27;;
16113;SDS011;8161;-33.910;151.156;2023-01-24T02:47:13;5.03;;;1.45;;
16113;SDS011;8161;-33.910;151.156;2023-01-24T02:49:40;4.15;;;1.48;;
16113;SDS011;8161;-33.910;151.156;2023-01-24T02:52:10;5.30;;;1.67;;
16113;SDS011;8161;-33.910;151.156;2023-01-24T02:54:51;1.95;;;1.00;;
16113;SDS011;8161;-33.910;151.156;2023-01-24T02:57:19;4.13;;;1.30;;
16113;SDS011;8161;-33.910;151.156;2023-01-24T02:59:59;7.32;;;1.33;;
16113;SDS011;8161;-33.910;151.156;2023-01-24T03:02:27;4.30;;;1.38;;
16113;SDS011;8161;-33.910;151.156;2023-01-24T03:04:54;3.70;;;1.17;;
16113;SDS011;8161;-33.910;151.156;2023-01-24T03:07:21;7.95;;;1.65;;
16113;SDS011;8161;-33.910;151.156;2023-01-24T03:09:49;3.42;;;1.30;;
16113;SDS011;8161;-33.910;151.156;2023-01-24T03:12:16;4.70;;;1.08;;
16113;SDS011;8161;-33.910;151.156;2023-01-24T03:14:57;5.50;;;1.50;;
16113;SDS011;8161;-33.910;151.156;2023-01-24T03:17:37;4.97;;;1.52;;
16113;SDS011;8161;-33.910;151.156;2023-01-24T03:20:18;4.32;;;1.40;;
16113;SDS011;8161;-33.910;151.156;2023-01-24T03:23:02;5.28;;;1.67;;
16113;SDS011;8161;-33.910;151.156;2023-01-24T03:25:43;3.13;;;1.50;;
16113;SDS011;8161;-33.910;151.156;2023-01-24T03:28:23;5.15;;;1.63;;
16113;SDS011;8161;-33.910;151.156;2023-01-24T03:31:05;5.18;;;1.88;;
16113;SDS011;8161;-33.910;151.156;2023-01-24T03:33:46;5.97;;;1.60;;
16113;SDS011;8161;-33.910;151.156;2023-01-24T03:36:26;9.95;;;2.20;;
16113;SDS011;8161;-33.910;151.156;2023-01-24T03:38:57;3.93;;;1.83;;
16113;SDS011;8161;-33.910;151.156;2023-01-24T03:41:37;6.05;;;1.92;;
16113;SDS011;8161;-33.910;151.156;2023-01-24T03:44:04;4.43;;;1.92;;
16113;SDS011;8161;-33.910;151.156;2023-01-24T03:46:31;5.85;;;1.83;;
16113;SDS011;8161;-33.910;151.156;2023-01-24T03:48:58;4.88;;;1.52;;
16113;SDS011;8161;-33.910;151.156;2023-01-24T03:51:27;4.90;;;1.80;;
16113;SDS011;8161;-33.910;151.156;2023-01-24T03:54:07;9.48;;;1.73;;
16113;SDS011;8161;-33.910;151.156;2023-01-24T03:56:35;3.85;;;1.90;;
16113;SDS011;8161;-33.910;151.156;2023-01-24T03:59:02;6.25;;;2.63;;
16113;SDS011;8161;-33.910;151.156;2023-01-24T04:01:29;6.18;;;2.55;;
16113;SDS011;8161;-33.910;151.156;2023-01-24T04:03:56;3.63;;;1.92;;
16113;SDS011;8161;-33.910;151.156;2023-01-24T04:06:24;7.10;;;2.90;;
16113;SDS011;8161;-33.910;151.156;2023-01-24T04:08:51;4.80;;;2.65;;
16113;SDS011;8161;-33.910;151.156;2023-01-24T04:11:18;5.32;;;3.28;;
16113;SDS011;8161;-33.910;151.156;2023-01-24T04:13:45;3.80;;;2.90;;
16113;SDS011;8161;-33.910;151.156;2023-01-24T04:16:13;6.82;;;3.03;;
16113;SDS011;8161;-33.910;151.156;2023-01-24T04:18:40;4.93;;;2.47;;
16113;SDS011;8161;-33.910;151.156;2023-01-24T04:21:09;6.65;;;3.13;;
16113;SDS011;8161;-33.910;151.156;2023-01-24T04:23:37;6.03;;;3.85;;
16113;SDS011;8161;-33.910;151.156;2023-01-24T04:26:04;5.68;;;3.00;;
16113;SDS011;8161;-33.910;151.156;2023-01-24T04:28:33;6.85;;;3.78;;
16113;SDS011;8161;-33.910;151.156;2023-01-24T04:31:02;5.38;;;3.00;;
16113;SDS011;8161;-33.910;151.156;2023-01-24T04:33:29;4.15;;;2.30;;
16113;SDS011;8161;-33.910;151.156;2023-01-24T04:35:57;5.35;;;2.75;;
16113;SDS011;8161;-33.910;151.156;2023-01-24T04:38:24;5.93;;;2.88;;
16113;SDS011;8161;-33.910;151.156;2023-01-24T04:40:59;5.68;;;2.92;;
16113;SDS011;8161;-33.910;151.156;2023-01-24T04:43:27;5.10;;;2.65;;
16113;SDS011;8161;-33.910;151.156;2023-01-24T04:45:55;5.28;;;2.83;;
16113;SDS011;8161;-33.910;151.156;2023-01-24T04:48:23;3.70;;;2.83;;
16113;SDS011;8161;-33.910;151.156;2023-01-24T04:50:51;6.82;;;3.00;;
16113;SDS011;8161;-33.910;151.156;2023-01-24T04:53:23;5.30;;;3.17;;
16113;SDS011;8161;-33.910;151.156;2023-01-24T04:55:50;9.45;;;3.83;;
16113;SDS011;8161;-33.910;151.156;2023-01-24T04:58:18;5.78;;;4.15;;
16113;SDS011;8161;-33.910;151.156;2023-01-24T05:00:47;6.15;;;3.70;;
16113;SDS011;8161;-33.910;151.156;2023-01-24T05:03:15;5.97;;;3.85;;
16113;SDS011;8161;-33.910;151.156;2023-01-24T05:05:42;4.13;;;3.72;;
16113;SDS011;8161;-33.910;151.156;2023-01-24T05:08:09;6.55;;;3.08;;
16113;SDS011;8161;-33.910;151.156;2023-01-24T05:10:36;5.28;;;4.40;;
16113;SDS011;8161;-33.910;151.156;2023-01-24T05:13:04;5.72;;;4.03;;
16113;SDS011;8161;-33.910;151.156;2023-01-24T05:15:31;6.72;;;4.95;;
16113;SDS011;8161;-33.910;151.156;2023-01-24T05:17:58;4.07;;;3.08;;
16113;SDS011;8161;-33.910;151.156;2023-01-24T05:20:26;5.82;;;3.97;;
16113;SDS011;8161;-33.910;151.156;2023-01-24T05:22:57;6.45;;;3.40;;
16113;SDS011;8161;-33.910;151.156;2023-01-24T05:25:24;5.43;;;3.65;;
16113;SDS011;8161;-33.910;151.156;2023-01-24T05:27:52;6.85;;;4.80;;
16113;SDS011;8161;-33.910;151.156;2023-01-24T05:30:19;6.60;;;4.43;;
16113;SDS011;8161;-33.910;151.156;2023-01-24T05:32:48;6.57;;;3.97;;
16113;SDS011;8161;-33.910;151.156;2023-01-24T05:35:15;4.72;;;3.72;;
16113;SDS011;8161;-33.910;151.156;2023-01-24T05:37:43;6.50;;;4.85;;
16113;SDS011;8161;-33.910;151.156;2023-01-24T05:40:10;8.13;;;3.60;;
16113;SDS011;8161;-33.910;151.156;2023-01-24T05:42:39;9.32;;;3.30;;
16113;SDS011;8161;-33.910;151.156;2023-01-24T05:45:10;7.00;;;3.08;;
16113;SDS011;8161;-33.910;151.156;2023-01-24T05:47:38;4.70;;;2.92;;
16113;SDS011;8161;-33.910;151.156;2023-01-24T05:50:05;4.43;;;2.67;;
16113;SDS011;8161;-33.910;151.156;2023-01-24T05:52:33;5.40;;;2.97;;
16113;SDS011;8161;-33.910;151.156;2023-01-24T05:55:00;4.88;;;2.65;;
16113;SDS011;8161;-33.910;151.156;2023-01-24T05:57:27;7.65;;;2.45;;
16113;SDS011;8161;-33.910;151.156;2023-01-24T05:59:55;3.85;;;2.47;;
16113;SDS011;8161;-33.910;151.156;2023-01-24T06:02:23;7.60;;;3.00;;
16113;SDS011;8161;-33.910;151.156;2023-01-24T06:04:50;4.75;;;2.60;;
16113;SDS011;8161;-33.910;151.156;2023-01-24T06:07:17;4.30;;;2.67;;
16113;SDS011;8161;-33.910;151.156;2023-01-24T06:09:44;8.73;;;3.22;;
16113;SDS011;8161;-33.910;151.156;2023-01-24T06:12:12;5.85;;;2.80;;
16113;SDS011;8161;-33.910;151.156;2023-01-24T06:14:39;4.10;;;2.72;;
16113;SDS011;8161;-33.910;151.156;2023-01-24T06:17:06;4.47;;;2.53;;
16113;SDS011;8161;-33.910;151.156;2023-01-24T06:19:33;5.13;;;2.42;;
16113;SDS011;8161;-33.910;151.156;2023-01-24T06:24:36;6.80;;;2.70;;
16113;SDS011;8161;-33.910;151.156;2023-01-24T06:27:04;6.47;;;3.25;;
16113;SDS011;8161;-33.910;151.156;2023-01-24T06:29:32;5.45;;;2.85;;
16113;SDS011;8161;-33.910;151.156;2023-01-24T06:32:03;5.18;;;2.75;;
16113;SDS011;8161;-33.910;151.156;2023-01-24T06:34:52;4.00;;;2.60;;
16113;SDS011;8161;-33.910;151.156;2023-01-24T06:39:55;3.78;;;2.88;;
16113;SDS011;8161;-33.910;151.156;2023-01-24T06:42:23;4.38;;;3.22;;
16113;SDS011;8161;-33.910;151.156;2023-01-24T06:44:51;3.83;;;2.80;;
16113;SDS011;8161;-33.910;151.156;2023-01-24T06:47:18;5.47;;;2.42;;
16113;SDS011;8161;-33.910;151.156;2023-01-24T06:49:46;6.05;;;3.00;;
16113;SDS011;8161;-33.910;151.156;2023-01-24T06:52:13;5.10;;;2.60;;
16113;SDS011;8161;-33.910;151.156;2023-01-24T06:54:40;3.67;;;3.38;;
16113;SDS011;8161;-33.910;151.156;2023-01-24T06:57:08;6.18;;;3.33;;
16113;SDS011;8161;-33.910;151.156;2023-01-24T06:59:35;4.82;;;3.58;;
16113;SDS011;8161;-33.910;151.156;2023-01-24T07:02:03;6.40;;;3.70;;
16113;SDS011;8161;-33.910;151.156;2023-01-24T07:04:30;4.40;;;3.30;;
16113;SDS011;8161;-33.910;151.156;2023-01-24T07:06:59;5.82;;;3.60;;
16113;SDS011;8161;-33.910;151.156;2023-01-24T07:09:27;6.07;;;3.47;;
16113;SDS011;8161;-33.910;151.156;2023-01-24T07:11:54;5.03;;;2.80;;
16113;SDS011;8161;-33.910;151.156;2023-01-24T07:14:23;5.20;;;2.10;;
16113;SDS011;8161;-33.910;151.156;2023-01-24T07:16:51;3.33;;;1.63;;
16113;SDS011;8161;-33.910;151.156;2023-01-24T07:19:21;3.88;;;1.67;;
16113;SDS011;8161;-33.910;151.156;2023-01-24T07:21:51;1.77;;;1.10;;
16113;SDS011;8161;-33.910;151.156;2023-01-24T07:24:20;4.65;;;1.38;;
16113;SDS011;8161;-33.910;151.156;2023-01-24T07:26:50;4.47;;;1.10;;
16113;SDS011;8161;-33.910;151.156;2023-01-24T07:29:19;4.65;;;1.35;;
16113;SDS011;8161;-33.910;151.156;2023-01-24T07:31:46;3.60;;;1.50;;
16113;SDS011;8161;-33.910;151.156;2023-01-24T07:34:14;3.58;;;1.85;;
16113;SDS011;8161;-33.910;151.156;2023-01-24T07:36:44;2.78;;;1.80;;
16113;SDS011;8161;-33.910;151.156;2023-01-24T07:39:12;4.72;;;1.30;;
16113;SDS011;8161;-33.910;151.156;2023-01-24T07:41:40;4.72;;;1.60;;
16113;SDS011;8161;-33.910;151.156;2023-01-24T07:44:11;3.03;;;1.42;;
16113;SDS011;8161;-33.910;151.156;2023-01-24T07:46:39;2.53;;;1.15;;
16113;SDS011;8161;-33.910;151.156;2023-01-24T07:49:07;4.20;;;1.48;;
16113;SDS011;8161;-33.910;151.156;2023-01-24T07:51:35;6.07;;;1.60;;
16113;SDS011;8161;-33.910;151.156;2023-01-24T07:54:02;7.97;;;1.33;;
16113;SDS011;8161;-33.910;151.156;2023-01-24T07:56:29;1.38;;;1.10;;
16113;SDS011;8161;-33.910;151.156;2023-01-24T07:58:57;5.15;;;1.10;;
16113;SDS011;8161;-33.910;151.156;2023-01-24T08:01:25;3.60;;;1.88;;
16113;SDS011;8161;-33.910;151.156;2023-01-24T08:03:56;4.28;;;1.10;;
16113;SDS011;8161;-33.910;151.156;2023-01-24T08:06:24;5.18;;;1.42;;
16113;SDS011;8161;-33.910;151.156;2023-01-24T08:08:52;3.53;;;1.48;;
16113;SDS011;8161;-33.910;151.156;2023-01-24T08:11:19;5.93;;;1.42;;
16113;SDS011;8161;-33.910;151.156;2023-01-24T08:13:47;2.65;;;1.05;;
16113;SDS011;8161;-33.910;151.156;2023-01-24T08:16:15;4.22;;;1.27;;
16113;SDS011;8161;-33.910;151.156;2023-01-24T08:18:43;6.68;;;1.73;;
16113;SDS011;8161;-33.910;151.156;2023-01-24T08:21:11;4.43;;;1.95;;
16113;SDS011;8161;-33.910;151.156;2023-01-24T08:23:38;3.03;;;1.15;;
16113;SDS011;8161;-33.910;151.156;2023-01-24T08:26:06;4.47;;;1.25;;
16113;SDS011;8161;-33.910;151.156;2023-01-24T08:28:33;3.10;;;1.58;;
16113;SDS011;8161;-33.910;151.156;2023-01-24T08:31:01;4.18;;;1.30;;
16113;SDS011;8161;-33.910;151.156;2023-01-24T08:33:28;5.80;;;1.80;;
16113;SDS011;8161;-33.910;151.156;2023-01-24T08:35:58;2.47;;;1.38;;
16113;SDS011;8161;-33.910;151.156;2023-01-24T08:38:25;6.93;;;2.22;;
16113;SDS011;8161;-33.910;151.156;2023-01-24T08:40:52;7.97;;;1.80;;
16113;SDS011;8161;-33.910;151.156;2023-01-24T08:43:20;4.68;;;1.35;;
16113;SDS011;8161;-33.910;151.156;2023-01-24T08:45:48;3.92;;;1.50;;
16113;SDS011;8161;-33.910;151.156;2023-01-24T08:48:19;7.65;;;1.60;;
16113;SDS011;8161;-33.910;151.156;2023-01-24T08:50:46;6.75;;;1.90;;
16113;SDS011;8161;-33.910;151.156;2023-01-24T08:53:13;6.25;;;1.67;;
16113;SDS011;8161;-33.910;151.156;2023-01-24T08:55:40;6.97;;;1.75;;
16113;SDS011;8161;-33.910;151.156;2023-01-24T08:58:11;4.10;;;1.63;;
16113;SDS011;8161;-33.910;151.156;2023-01-24T09:00:38;5.45;;;1.70;;
16113;SDS011;8161;-33.910;151.156;2023-01-24T09:03:05;4.57;;;2.00;;
16113;SDS011;8161;-33.910;151.156;2023-01-24T09:05:32;6.38;;;1.75;;
16113;SDS011;8161;-33.910;151.156;2023-01-24T09:08:00;4.32;;;1.70;;
16113;SDS011;8161;-33.910;151.156;2023-01-24T09:10:27;5.03;;;1.50;;
16113;SDS011;8161;-33.910;151.156;2023-01-24T09:12:54;5.45;;;1.42;;
16113;SDS011;8161;-33.910;151.156;2023-01-24T09:15:21;4.32;;;1.52;;
16113;SDS011;8161;-33.910;151.156;2023-01-24T09:17:51;8.23;;;1.35;;
16113;SDS011;8161;-33.910;151.156;2023-01-24T09:20:19;4.50;;;1.30;;
16113;SDS011;8161;-33.910;151.156;2023-01-24T09:22:46;3.25;;;1.42;;
16113;SDS011;8161;-33.910;151.156;2023-01-24T09:25:13;3.33;;;1.10;;
16113;SDS011;8161;-33.910;151.156;2023-01-24T09:27:41;8.52;;;1.42;;
16113;SDS011;8161;-33.910;151.156;2023-01-24T09:30:08;6.38;;;1.20;;
16113;SDS011;8161;-33.910;151.156;2023-01-24T09:32:36;5.70;;;1.33;;
16113;SDS011;8161;-33.910;151.156;2023-01-24T09:35:03;5.05;;;1.20;;
16113;SDS011;8161;-33.910;151.156;2023-01-24T09:37:31;4.45;;;1.20;;
16113;SDS011;8161;-33.910;151.156;2023-01-24T09:39:58;6.50;;;1.33;;
16113;SDS011;8161;-33.910;151.156;2023-01-24T09:45:13;6.75;;;1.83;;
16113;SDS011;8161;-33.910;151.156;2023-01-24T09:48:06;7.65;;;2.40;;
16113;SDS011;8161;-33.910;151.156;2023-01-24T09:53:21;5.18;;;1.80;;
16113;SDS011;8161;-33.910;151.156;2023-01-24T09:56:06;8.32;;;1.38;;
16113;SDS011;8161;-33.910;151.156;2023-01-24T09:58:55;5.40;;;1.27;;
16113;SDS011;8161;-33.910;151.156;2023-01-24T10:01:37;7.85;;;1.70;;
16113;SDS011;8161;-33.910;151.156;2023-01-24T10:06:50;8.65;;;1.30;;
16113;SDS011;8161;-33.910;151.156;2023-01-24T10:24:11;8.55;;;1.70;;
16113;SDS011;8161;-33.910;151.156;2023-01-24T10:26:47;5.75;;;1.60;;
16113;SDS011;8161;-33.910;151.156;2023-01-24T10:29:19;9.25;;;2.05;;
16113;SDS011;8161;-33.910;151.156;2023-01-24T10:31:54;6.50;;;1.60;;
16113;SDS011;8161;-33.910;151.156;2023-01-24T10:34:41;8.63;;;1.92;;
16113;SDS011;8161;-33.910;151.156;2023-01-24T10:37:22;7.38;;;1.50;;
16113;SDS011;8161;-33.910;151.156;2023-01-24T10:39:53;7.03;;;1.42;;
16113;SDS011;8161;-33.910;151.156;2023-01-24T10:42:30;10.13;;;2.22;;
16113;SDS011;8161;-33.910;151.156;2023-01-24T10:44:59;6.90;;;1.90;;
16113;SDS011;8161;-33.910;151.156;2023-01-24T10:47:44;7.60;;;1.92;;
16113;SDS011;8161;-33.910;151.156;2023-01-24T10:50:32;14.10;;;1.85;;
16113;SDS011;8161;-33.910;151.156;2023-01-24T10:53:11;3.50;;;1.60;;
16113;SDS011;8161;-33.910;151.156;2023-01-24T10:55:39;9.07;;;2.13;;
16113;SDS011;8161;-33.910;151.156;2023-01-24T11:00:56;5.28;;;2.47;;
16113;SDS011;8161;-33.910;151.156;2023-01-24T11:03:26;3.63;;;2.40;;
16113;SDS011;8161;-33.910;151.156;2023-01-24T11:06:01;6.18;;;2.35;;
16113;SDS011;8161;-33.910;151.156;2023-01-24T11:08:32;6.30;;;3.53;;
16113;SDS011;8161;-33.910;151.156;2023-01-24T11:11:02;7.63;;;2.80;;
16113;SDS011;8161;-33.910;151.156;2023-01-24T11:13:45;5.00;;;2.90;;
16113;SDS011;8161;-33.910;151.156;2023-01-24T11:18:46;5.38;;;2.70;;
16113;SDS011;8161;-33.910;151.156;2023-01-24T11:21:25;4.97;;;2.53;;
16113;SDS011;8161;-33.910;151.156;2023-01-24T11:29:30;5.50;;;2.47;;
16113;SDS011;8161;-33.910;151.156;2023-01-24T11:32:04;5.00;;;2.30;;
16113;SDS011;8161;-33.910;151.156;2023-01-24T11:35:11;7.57;;;2.88;;
16113;SDS011;8161;-33.910;151.156;2023-01-24T11:40:14;5.45;;;2.88;;
16113;SDS011;8161;-33.910;151.156;2023-01-24T12:13:15;8.45;;;2.15;;
16113;SDS011;8161;-33.910;151.156;2023-01-24T12:18:47;5.78;;;2.00;;
16113;SDS011;8161;-33.910;151.156;2023-01-24T12:21:49;6.65;;;2.38;;
16113;SDS011;8161;-33.910;151.156;2023-01-24T12:24:24;6.65;;;2.47;;
16113;SDS011;8161;-33.910;151.156;2023-01-24T12:26:58;5.82;;;2.67;;
16113;SDS011;8161;-33.910;151.156;2023-01-24T12:30:03;4.50;;;2.22;;
16113;SDS011;8161;-33.910;151.156;2023-01-24T12:32:30;3.33;;;2.40;;
16113;SDS011;8161;-33.910;151.156;2023-01-24T12:43:24;2.40;;;1.80;;
16113;SDS011;8161;-33.910;151.156;2023-01-24T12:46:17;2.97;;;1.85;;
16113;SDS011;8161;-33.910;151.156;2023-01-24T12:51:20;3.25;;;2.20;;
16113;SDS011;8161;-33.910;151.156;2023-01-24T12:54:02;3.08;;;1.77;;
16113;SDS011;8161;-33.910;151.156;2023-01-24T12:59:04;4.25;;;2.00;;
16113;SDS011;8161;-33.910;151.156;2023-01-24T13:07:08;4.25;;;1.92;;
16113;SDS011;8161;-33.910;151.156;2023-01-24T13:12:57;3.55;;;2.03;;
16113;SDS011;8161;-33.910;151.156;2023-01-24T13:15:39;3.85;;;2.13;;
16113;SDS011;8161;-33.910;151.156;2023-01-24T13:18:21;3.58;;;1.70;;
16113;SDS011;8161;-33.910;151.156;2023-01-24T13:21:00;2.53;;;1.85;;
16113;SDS011;8161;-33.910;151.156;2023-01-24T13:31:30;5.53;;;2.28;;
16113;SDS011;8161;-33.910;151.156;2023-01-24T13:34:15;5.03;;;2.10;;
16113;SDS011;8161;-33.910;151.156;2023-01-24T13:36:46;3.17;;;2.15;;
16113;SDS011;8161;-33.910;151.156;2023-01-24T13:44:49;5.03;;;2.45;;
16113;SDS011;8161;-33.910;151.156;2023-01-24T13:54:58;4.68;;;2.65;;
16113;SDS011;8161;-33.910;151.156;2023-01-24T14:11:08;6.45;;;2.95;;
16113;SDS011;8161;-33.910;151.156;2023-01-24T14:21:51;8.82;;;3.88;;
16113;SDS011;8161;-33.910;151.156;2023-01-24T14:27:19;8.52;;;4.63;;
16113;SDS011;8161;-33.910;151.156;2023-01-24T14:30:34;3.20;;;2.70;;
16113;SDS011;8161;-33.910;151.156;2023-01-24T14:32:43;4.18;;;2.83;;
16113;SDS011;8161;-33.910;151.156;2023-01-24T14:37:44;4.82;;;2.50;;
16113;SDS011;8161;-33.910;151.156;2023-01-24T14:40:22;4.55;;;2.85;;
16113;SDS011;8161;-33.910;151.156;2023-01-24T14:43:00;6.03;;;2.95;;
16113;SDS011;8161;-33.910;151.156;2023-01-24T14:45:31;3.15;;;2.65;;
16113;SDS011;8161;-33.910;151.156;2023-01-24T14:47:59;4.60;;;3.10;;
16113;SDS011;8161;-33.910;151.156;2023-01-24T14:50:39;5.95;;;2.95;;
16113;SDS011;8161;-33.910;151.156;2023-01-24T14:55:49;6.53;;;3.15;;
16113;SDS011;8161;-33.910;151.156;2023-01-24T14:58:26;4.88;;;2.80;;
16113;SDS011;8161;-33.910;151.156;2023-01-24T15:00:56;4.18;;;2.90;;
16113;SDS011;8161;-33.910;151.156;2023-01-24T15:03:26;4.80;;;2.67;;
16113;SDS011;8161;-33.910;151.156;2023-01-24T15:06:01;8.27;;;3.42;;
16113;SDS011;8161;-33.910;151.156;2023-01-24T15:08:31;6.97;;;3.00;;
16113;SDS011;8161;-33.910;151.156;2023-01-24T15:11:06;6.35;;;3.03;;
16113;SDS011;8161;-33.910;151.156;2023-01-24T15:14:06;6.35;;;3.38;;
16113;SDS011;8161;-33.910;151.156;2023-01-24T15:19:18;5.07;;;3.28;;
16113;SDS011;8161;-33.910;151.156;2023-01-24T15:21:49;6.25;;;3.13;;
16113;SDS011;8161;-33.910;151.156;2023-01-24T15:24:20;6.10;;;2.88;;
16113;SDS011;8161;-33.910;151.156;2023-01-24T15:26:54;6.07;;;3.25;;
16113;SDS011;8161;-33.910;151.156;2023-01-24T15:32:38;5.50;;;3.15;;
16113;SDS011;8161;-33.910;151.156;2023-01-24T15:37:42;5.68;;;3.20;;
16113;SDS011;8161;-33.910;151.156;2023-01-24T15:40:19;4.43;;;3.10;;
16113;SDS011;8161;-33.910;151.156;2023-01-24T15:42:46;5.65;;;3.25;;
16113;SDS011;8161;-33.910;151.156;2023-01-24T15:45:29;4.55;;;3.13;;
16113;SDS011;8161;-33.910;151.156;2023-01-24T15:48:26;8.48;;;4.18;;
16113;SDS011;8161;-33.910;151.156;2023-01-24T15:50:55;7.63;;;4.20;;
16113;SDS011;8161;-33.910;151.156;2023-01-24T15:53:32;7.00;;;4.30;;
16113;SDS011;8161;-33.910;151.156;2023-01-24T15:56:01;6.10;;;3.45;;
16113;SDS011;8161;-33.910;151.156;2023-01-24T15:58:31;8.82;;;3.90;;
16113;SDS011;8161;-33.910;151.156;2023-01-24T16:01:01;7.13;;;3.67;;
16113;SDS011;8161;-33.910;151.156;2023-01-24T16:03:29;9.05;;;3.22;;
16113;SDS011;8161;-33.910;151.156;2023-01-24T16:05:56;6.82;;;3.30;;
16113;SDS011;8161;-33.910;151.156;2023-01-24T16:08:23;6.53;;;3.72;;
16113;SDS011;8161;-33.910;151.156;2023-01-24T16:10:52;4.85;;;3.70;;
16113;SDS011;8161;-33.910;151.156;2023-01-24T16:13:33;6.20;;;3.25;;
16113;SDS011;8161;-33.910;151.156;2023-01-24T16:16:10;3.83;;;3.20;;
16113;SDS011;8161;-33.910;151.156;2023-01-24T16:18:40;5.82;;;3.40;;
16113;SDS011;8161;-33.910;151.156;2023-01-24T16:21:08;8.27;;;3.83;;
16113;SDS011;8161;-33.910;151.156;2023-01-24T16:23:35;4.85;;;3.33;;
16113;SDS011;8161;-33.910;151.156;2023-01-24T16:26:03;7.85;;;3.50;;
16113;SDS011;8161;-33.910;151.156;2023-01-24T16:28:30;8.02;;;3.80;;
16113;SDS011;8161;-33.910;151.156;2023-01-24T16:31:01;7.65;;;4.22;;
16113;SDS011;8161;-33.910;151.156;2023-01-24T16:33:29;6.70;;;3.72;;
16113;SDS011;8161;-33.910;151.156;2023-01-24T16:35:56;8.95;;;4.15;;
16113;SDS011;8161;-33.910;151.156;2023-01-24T16:38:24;7.10;;;3.30;;
16113;SDS011;8161;-33.910;151.156;2023-01-24T16:40:51;5.88;;;3.45;;
16113;SDS011;8161;-33.910;151.156;2023-01-24T16:43:20;5.95;;;3.83;;
16113;SDS011;8161;-33.910;151.156;2023-01-24T16:45:49;6.05;;;3.83;;
16113;SDS011;8161;-33.910;151.156;2023-01-24T16:48:17;7.82;;;3.90;;
16113;SDS011;8161;-33.910;151.156;2023-01-24T16:50:45;7.50;;;4.32;;
16113;SDS011;8161;-33.910;151.156;2023-01-24T16:53:12;5.75;;;4.10;;
16113;SDS011;8161;-33.910;151.156;2023-01-24T16:55:40;5.60;;;3.55;;
16113;SDS011;8161;-33.910;151.156;2023-01-24T16:58:09;6.63;;;3.95;;
16113;SDS011;8161;-33.910;151.156;2023-01-24T17:00:37;7.05;;;3.80;;
16113;SDS011;8161;-33.910;151.156;2023-01-24T17:03:05;5.68;;;3.47;;
16113;SDS011;8161;-33.910;151.156;2023-01-24T17:05:32;6.15;;;3.63;;
16113;SDS011;8161;-33.910;151.156;2023-01-24T17:08:00;4.93;;;3.72;;
16113;SDS011;8161;-33.910;151.156;2023-01-24T17:10:27;6.18;;;3.83;;
16113;SDS011;8161;-33.910;151.156;2023-01-24T17:12:56;7.15;;;4.03;;
16113;SDS011;8161;-33.910;151.156;2023-01-24T17:15:23;6.35;;;3.78;;
16113;SDS011;8161;-33.910;151.156;2023-01-24T17:17:51;9.80;;;4.10;;
16113;SDS011;8161;-33.910;151.156;2023-01-24T17:20:18;9.35;;;4.65;;
16113;SDS011;8161;-33.910;151.156;2023-01-24T17:22:46;6.80;;;3.97;;
16113;SDS011;8161;-33.910;151.156;2023-01-24T17:25:14;7.45;;;4.13;;
16113;SDS011;8161;-33.910;151.156;2023-01-24T17:27:41;7.40;;;4.30;;
16113;SDS011;8161;-33.910;151.156;2023-01-24T17:30:10;7.57;;;4.18;;
16113;SDS011;8161;-33.910;151.156;2023-01-24T17:32:37;6.05;;;3.95;;